Time;durP1;ratioP1;P1;durP2;ratioP2;P2;SDS_P1;SDS_P2;PMS_P1;PMS_P2;Temp;Humidity;BMP_temperature;BMP_pressure;BME280_temperature;BME280_humidity;BME280_pressure;Samples;Min_cycle;Max_cycle;Signal;HPM_P1;HPM_P2
2021/08/25 00:02:22;;;;;;;8.70;5.60;;;;;;;;;;5007166;28;20221;-71
2021/08/25 00:04:48;;;;;;;10.55;5.57;;;;;;;;;;5006845;28;20183;-71
2021/08/25 00:07:13;;;;;;;12.10;6.38;;;;;;;;;;4997037;28;20252;-71
2021/08/25 00:09:40;;;;;;;12.07;6.20;;;;;;;;;;5007637;28;20202;-71
2021/08/25 00:12:07;;;;;;;9.50;6.05;;;;;;;;;;4998295;28;20679;-71
2021/08/25 00:14:37;;;;;;;10.60;6.10;;;;;;;;;;5004767;28;20237;-71
2021/08/25 00:17:03;;;;;;;10.23;5.72;;;;;;;;;;4997103;28;20224;-70
2021/08/25 00:19:28;;;;;;;9.32;5.65;;;;;;;;;;5004775;28;20228;-70
2021/08/25 00:21:54;;;;;;;10.10;6.40;;;;;;;;;;4993083;28;20241;-71
2021/08/25 00:24:20;;;;;;;9.77;6.45;;;;;;;;;;5004509;28;20235;-71
2021/08/25 00:26:46;;;;;;;9.80;6.20;;;;;;;;;;4996737;28;20194;-70
2021/08/25 00:29:13;;;;;;;12.32;5.65;;;;;;;;;;5004622;28;20549;-71
2021/08/25 00:31:39;;;;;;;9.23;6.05;;;;;;;;;;4999592;28;20248;-71
2021/08/25 00:34:04;;;;;;;11.70;6.53;;;;;;;;;;4985240;28;20206;-70
2021/08/25 00:36:29;;;;;;;10.05;6.03;;;;;;;;;;5006100;28;20638;-70
2021/08/25 00:38:55;;;;;;;10.63;5.85;;;;;;;;;;4996782;28;20230;-70
2021/08/25 00:41:20;;;;;;;11.55;5.70;;;;;;;;;;5005692;28;20601;-70
2021/08/25 00:43:45;;;;;;;9.68;6.05;;;;;;;;;;4997194;28;20207;-70
2021/08/25 00:46:11;;;;;;;13.38;5.75;;;;;;;;;;5007722;28;21346;-71
2021/08/25 00:48:37;;;;;;;10.68;6.28;;;;;;;;;;4999584;28;20186;-71
2021/08/25 00:51:02;;;;;;;10.52;6.13;;;;;;;;;;5005578;28;20186;-70
2021/08/25 00:53:27;;;;;;;13.75;6.82;;;;;;;;;;4996636;28;20183;-70
2021/08/25 00:55:54;;;;;;;11.88;6.43;;;;;;;;;;5006005;28;20602;-70
2021/08/25 00:58:20;;;;;;;10.50;6.57;;;;;;;;;;4997408;28;20210;-70
2021/08/25 01:01:02;;;;;;;10.52;6.43;;;;;;;;;;5007138;28;20312;-70
2021/08/25 01:03:36;;;;;;;10.63;7.00;;;;;;;;;;4993990;28;20237;-70
2021/08/25 01:06:02;;;;;;;9.10;6.20;;;;;;;;;;5004160;28;20182;-70
2021/08/25 01:08:28;;;;;;;13.80;7.53;;;;;;;;;;4997999;28;20206;-71
2021/08/25 01:11:07;;;;;;;9.85;6.63;;;;;;;;;;5003567;28;20275;-71
2021/08/25 01:13:33;;;;;;;12.50;6.57;;;;;;;;;;5006298;28;20201;-71
2021/08/25 01:15:58;;;;;;;9.15;6.30;;;;;;;;;;4996429;28;20190;-71
2021/08/25 01:18:24;;;;;;;13.07;6.40;;;;;;;;;;5003190;28;20195;-71
2021/08/25 01:20:50;;;;;;;9.75;6.90;;;;;;;;;;4997470;28;20223;-72
2021/08/25 01:23:18;;;;;;;10.00;6.32;;;;;;;;;;4999706;28;20214;-70
2021/08/25 01:25:44;;;;;;;13.15;7.10;;;;;;;;;;4996563;28;20210;-70
2021/08/25 01:28:10;;;;;;;10.18;6.88;;;;;;;;;;5004400;28;20662;-70
2021/08/25 01:30:40;;;;;;;9.60;6.63;;;;;;;;;;4997167;28;20644;-71
2021/08/25 01:33:05;;;;;;;10.18;6.75;;;;;;;;;;5001704;28;20190;-71
2021/08/25 01:35:33;;;;;;;10.02;6.65;;;;;;;;;;4998418;28;20187;-72
2021/08/25 01:38:01;;;;;;;11.20;6.97;;;;;;;;;;5004083;28;20187;-72
2021/08/25 01:40:26;;;;;;;9.20;6.80;;;;;;;;;;5000213;28;20650;-70
2021/08/25 01:42:52;;;;;;;10.68;7.00;;;;;;;;;;5002433;28;20406;-71
2021/08/25 01:45:17;;;;;;;14.23;7.82;;;;;;;;;;4997866;28;20208;-72
2021/08/25 01:47:42;;;;;;;11.57;7.18;;;;;;;;;;5000507;28;20244;-72
2021/08/25 01:50:08;;;;;;;10.48;7.18;;;;;;;;;;5007981;28;20175;-72
2021/08/25 01:52:33;;;;;;;14.85;8.60;;;;;;;;;;4995149;28;20178;-72
2021/08/25 01:54:59;;;;;;;11.20;7.70;;;;;;;;;;5010114;28;20190;-71
2021/08/25 01:57:24;;;;;;;10.10;6.90;;;;;;;;;;4994877;28;20195;-72
2021/08/25 01:59:49;;;;;;;14.27;7.75;;;;;;;;;;5005188;28;20237;-70
2021/08/25 02:02:15;;;;;;;12.85;7.63;;;;;;;;;;4993943;28;20298;-71
2021/08/25 02:04:40;;;;;;;13.93;7.47;;;;;;;;;;5008623;28;20600;-71
2021/08/25 02:07:05;;;;;;;11.10;7.10;;;;;;;;;;4993747;28;20659;-71
2021/08/25 02:09:31;;;;;;;10.40;6.70;;;;;;;;;;5009186;28;20570;-72
2021/08/25 02:11:57;;;;;;;9.90;6.95;;;;;;;;;;4995861;28;20222;-71
2021/08/25 02:14:22;;;;;;;14.05;7.90;;;;;;;;;;5006529;28;20194;-71
2021/08/25 02:16:48;;;;;;;12.65;7.90;;;;;;;;;;4994508;28;20195;-71
2021/08/25 02:19:13;;;;;;;11.55;7.95;;;;;;;;;;5000657;28;20190;-71
2021/08/25 02:21:39;;;;;;;11.38;7.53;;;;;;;;;;5003290;28;20662;-70
2021/08/25 02:24:04;;;;;;;12.50;8.05;;;;;;;;;;5001687;28;20182;-71
2021/08/25 02:26:30;;;;;;;12.38;7.88;;;;;;;;;;5003272;28;20512;-71
2021/08/25 02:28:55;;;;;;;14.00;8.00;;;;;;;;;;4998797;28;20245;-71
2021/08/25 02:31:21;;;;;;;14.40;8.48;;;;;;;;;;5002596;28;20256;-72
2021/08/25 02:33:48;;;;;;;12.95;7.80;;;;;;;;;;4999442;28;20269;-71
2021/08/25 02:36:15;;;;;;;10.73;8.00;;;;;;;;;;4999956;28;20663;-72
2021/08/25 02:38:41;;;;;;;13.57;8.07;;;;;;;;;;5000571;28;20179;-72
2021/08/25 02:41:10;;;;;;;15.70;8.57;;;;;;;;;;5004051;28;20191;-71
2021/08/25 02:43:36;;;;;;;12.63;8.52;;;;;;;;;;5000172;28;20272;-72
2021/08/25 02:46:02;;;;;;;15.73;8.70;;;;;;;;;;5006620;28;20183;-71
2021/08/25 02:48:28;;;;;;;14.30;8.18;;;;;;;;;;5000907;28;20195;-72
2021/08/25 02:50:53;;;;;;;13.27;8.15;;;;;;;;;;5003231;28;20575;-71
2021/08/25 02:53:19;;;;;;;13.65;8.07;;;;;;;;;;5000626;28;20299;-71
2021/08/25 02:55:44;;;;;;;11.05;7.88;;;;;;;;;;4996497;28;20302;-71
2021/08/25 02:58:10;;;;;;;14.55;7.90;;;;;;;;;;5004867;28;20205;-71
2021/08/25 03:00:35;;;;;;;12.85;8.43;;;;;;;;;;4993735;28;20235;-71
2021/08/25 03:03:01;;;;;;;11.30;7.85;;;;;;;;;;5003989;28;20406;-71
2021/08/25 03:05:27;;;;;;;13.35;8.90;;;;;;;;;;4992288;28;20627;-71
2021/08/25 03:07:52;;;;;;;12.25;8.75;;;;;;;;;;5003315;28;20570;-71
2021/08/25 03:10:18;;;;;;;15.20;9.30;;;;;;;;;;4993157;28;20199;-71
2021/08/25 03:12:43;;;;;;;15.57;9.60;;;;;;;;;;5001909;28;20178;-71
2021/08/25 03:15:09;;;;;;;14.35;8.68;;;;;;;;;;5006417;28;20471;-71
2021/08/25 03:17:34;;;;;;;14.95;9.50;;;;;;;;;;5004569;28;20518;-71
2021/08/25 03:20:00;;;;;;;11.15;9.23;;;;;;;;;;4994166;28;20191;-71
2021/08/25 03:22:28;;;;;;;12.25;9.07;;;;;;;;;;5008415;28;21029;-71
2021/08/25 03:24:53;;;;;;;14.35;9.27;;;;;;;;;;5006933;28;20326;-71
2021/08/25 03:27:18;;;;;;;14.07;9.60;;;;;;;;;;5000758;28;20367;-71
2021/08/25 03:29:44;;;;;;;11.60;8.50;;;;;;;;;;5004533;28;20197;-71
2021/08/25 03:32:09;;;;;;;15.55;9.90;;;;;;;;;;5000286;28;20183;-71
2021/08/25 03:34:35;;;;;;;16.58;9.75;;;;;;;;;;5007151;28;20190;-71
2021/08/25 03:37:00;;;;;;;14.98;9.85;;;;;;;;;;4997796;28;20187;-71
2021/08/25 03:39:25;;;;;;;15.85;10.15;;;;;;;;;;5004498;28;20236;-70
2021/08/25 03:41:51;;;;;;;14.82;10.38;;;;;;;;;;5004117;28;20208;-71
2021/08/25 03:44:16;;;;;;;16.60;10.20;;;;;;;;;;5003717;28;20201;-71
2021/08/25 03:46:41;;;;;;;12.93;10.05;;;;;;;;;;5002446;28;20217;-71
2021/08/25 03:49:06;;;;;;;12.98;9.90;;;;;;;;;;5004464;28;20190;-71
2021/08/25 03:51:32;;;;;;;15.88;10.80;;;;;;;;;;4997800;28;20190;-71
2021/08/25 03:53:57;;;;;;;14.27;10.23;;;;;;;;;;5004872;28;20186;-71
2021/08/25 03:56:23;;;;;;;15.35;9.93;;;;;;;;;;5008063;28;20186;-71
2021/08/25 03:58:48;;;;;;;14.07;10.57;;;;;;;;;;4993403;28;20278;-71
2021/08/25 04:01:13;;;;;;;15.43;10.82;;;;;;;;;;5005494;28;20231;-71
2021/08/25 04:03:38;;;;;;;18.55;11.35;;;;;;;;;;4994986;28;20216;-72
2021/08/25 04:06:04;;;;;;;16.67;11.25;;;;;;;;;;5008902;28;20269;-71
2021/08/25 04:08:30;;;;;;;17.67;11.77;;;;;;;;;;4996670;28;20264;-71
2021/08/25 04:10:55;;;;;;;16.25;11.38;;;;;;;;;;5010083;28;20190;-71
2021/08/25 04:13:21;;;;;;;15.25;11.38;;;;;;;;;;4999152;28;20197;-71
2021/08/25 04:15:46;;;;;;;17.65;12.23;;;;;;;;;;5007596;28;20190;-72
2021/08/25 04:18:11;;;;;;;18.88;11.70;;;;;;;;;;4996858;28;20280;-72
2021/08/25 04:20:37;;;;;;;15.25;10.93;;;;;;;;;;5007988;28;20191;-71
2021/08/25 04:23:02;;;;;;;18.20;12.60;;;;;;;;;;4996079;28;20293;-71
2021/08/25 04:25:28;;;;;;;14.70;11.93;;;;;;;;;;5005618;28;20257;-72
2021/08/25 04:27:53;;;;;;;16.77;11.98;;;;;;;;;;5004609;28;20728;-72
2021/08/25 04:30:18;;;;;;;18.30;13.27;;;;;;;;;;5000286;28;20552;-72
2021/08/25 04:32:44;;;;;;;19.38;12.30;;;;;;;;;;5004243;28;20536;-72
2021/08/25 04:35:09;;;;;;;16.98;12.27;;;;;;;;;;4997563;28;20191;-72
2021/08/25 04:37:34;;;;;;;20.60;13.18;;;;;;;;;;5005694;28;20617;-71
2021/08/25 04:40:00;;;;;;;18.60;13.10;;;;;;;;;;4997163;28;20211;-71
2021/08/25 04:42:25;;;;;;;19.52;13.30;;;;;;;;;;5004189;28;20206;-71
2021/08/25 04:44:51;;;;;;;17.92;12.60;;;;;;;;;;4998307;28;20638;-71
2021/08/25 04:47:16;;;;;;;17.35;12.38;;;;;;;;;;5001548;28;20191;-72
2021/08/25 04:49:41;;;;;;;19.10;13.23;;;;;;;;;;4999034;28;21403;-72
2021/08/25 04:52:07;;;;;;;17.63;13.40;;;;;;;;;;5007637;28;20179;-72
2021/08/25 04:54:32;;;;;;;14.55;12.05;;;;;;;;;;5006634;28;20206;-72
2021/08/25 04:56:58;;;;;;;17.33;12.55;;;;;;;;;;4997921;28;20207;-72
2021/08/25 04:59:23;;;;;;;21.20;11.90;;;;;;;;;;5002945;28;20237;-71
2021/08/25 05:01:48;;;;;;;14.35;10.80;;;;;;;;;;4995675;28;20607;-71
2021/08/25 05:04:14;;;;;;;15.32;11.65;;;;;;;;;;5003087;28;20285;-71
2021/08/25 05:06:39;;;;;;;14.35;11.15;;;;;;;;;;4993837;28;20269;-71
2021/08/25 05:09:05;;;;;;;17.58;12.00;;;;;;;;;;5001013;28;20202;-71
2021/08/25 05:11:30;;;;;;;19.00;12.90;;;;;;;;;;4992602;28;20332;-71
2021/08/25 05:13:56;;;;;;;16.95;12.20;;;;;;;;;;5006112;28;20182;-71
2021/08/25 05:16:21;;;;;;;30.88;20.05;;;;;;;;;;4991936;28;20566;-71
2021/08/25 05:18:46;;;;;;;20.95;17.08;;;;;;;;;;5001410;28;20202;-72
2021/08/25 05:21:12;;;;;;;18.73;15.07;;;;;;;;;;4993263;28;20240;-71
2021/08/25 05:23:37;;;;;;;18.98;14.68;;;;;;;;;;5006105;28;20214;-72
2021/08/25 05:26:04;;;;;;;19.77;15.20;;;;;;;;;;5003683;28;20197;-72
2021/08/25 05:28:29;;;;;;;19.25;14.10;;;;;;;;;;4997089;28;20202;-72
2021/08/25 05:30:55;;;;;;;21.20;14.73;;;;;;;;;;5004349;28;20549;-71
2021/08/25 05:33:20;;;;;;;17.73;13.43;;;;;;;;;;4994688;28;20288;-71
2021/08/25 05:35:46;;;;;;;19.00;15.05;;;;;;;;;;5002155;28;20502;-71
2021/08/25 05:38:11;;;;;;;18.23;13.27;;;;;;;;;;5001004;28;20218;-71
2021/08/25 05:40:37;;;;;;;15.65;13.05;;;;;;;;;;5004422;28;20680;-71
2021/08/25 05:43:02;;;;;;;18.77;13.93;;;;;;;;;;4993625;28;20234;-71
2021/08/25 05:45:27;;;;;;;20.65;16.58;;;;;;;;;;5005099;28;20606;-71
2021/08/25 05:47:56;;;;;;;19.90;16.23;;;;;;;;;;4999824;28;20281;-71
2021/08/25 05:50:21;;;;;;;23.30;18.77;;;;;;;;;;5005951;28;20448;-71
2021/08/25 05:52:47;;;;;;;28.67;21.33;;;;;;;;;;4997095;28;20198;-71
2021/08/25 05:55:12;;;;;;;22.98;18.88;;;;;;;;;;5002107;28;20553;-72
2021/08/25 05:57:45;;;;;;;29.70;23.10;;;;;;;;;;5005487;28;20603;-72
2021/08/25 06:00:11;;;;;;;24.42;19.25;;;;;;;;;;4999102;28;20633;-72
2021/08/25 06:02:37;;;;;;;28.33;21.67;;;;;;;;;;5006278;28;20289;-71
2021/08/25 06:05:02;;;;;;;34.88;27.33;;;;;;;;;;4997157;28;20286;-72
2021/08/25 06:07:27;;;;;;;31.75;24.55;;;;;;;;;;4986134;28;20586;-71
2021/08/25 06:09:53;;;;;;;30.83;25.45;;;;;;;;;;4995248;28;20199;-72
2021/08/25 06:12:18;;;;;;;34.53;27.55;;;;;;;;;;5004418;28;20194;-71
2021/08/25 06:14:43;;;;;;;37.50;28.35;;;;;;;;;;4993542;28;20631;-72
2021/08/25 06:17:09;;;;;;;41.78;28.63;;;;;;;;;;5004070;28;20226;-72
2021/08/25 06:19:34;;;;;;;40.45;29.30;;;;;;;;;;4995624;28;20253;-72
2021/08/25 06:22:07;;;;;;;45.23;32.41;;;;;;;;;;4585571;28;10002834;-72
2021/08/25 06:24:33;;;;;;;44.10;31.70;;;;;;;;;;4989926;28;20439;-72
2021/08/25 06:26:58;;;;;;;47.35;33.10;;;;;;;;;;5000507;28;20658;-72
2021/08/25 06:29:23;;;;;;;49.80;32.53;;;;;;;;;;5000121;28;21169;-72
2021/08/25 06:31:49;;;;;;;47.70;32.97;;;;;;;;;;4994742;28;20218;-72
2021/08/25 06:34:14;;;;;;;43.95;32.55;;;;;;;;;;4999963;28;20229;-72
2021/08/25 06:36:39;;;;;;;42.63;32.05;;;;;;;;;;4993975;28;20187;-72
2021/08/25 06:39:05;;;;;;;42.55;31.33;;;;;;;;;;4998569;28;20186;-72
2021/08/25 06:41:30;;;;;;;44.47;31.52;;;;;;;;;;4994769;28;20183;-71
2021/08/25 06:43:55;;;;;;;40.80;30.60;;;;;;;;;;5002409;28;20570;-72
2021/08/25 06:46:21;;;;;;;40.90;29.77;;;;;;;;;;4991849;28;20222;-72
2021/08/25 06:48:46;;;;;;;43.08;30.33;;;;;;;;;;5000525;28;20261;-72
2021/08/25 06:51:12;;;;;;;45.05;30.45;;;;;;;;;;4992099;28;20267;-70
2021/08/25 06:53:37;;;;;;;38.92;28.25;;;;;;;;;;5000461;28;20179;-71
2021/08/25 06:56:02;;;;;;;40.90;27.52;;;;;;;;;;4989553;28;20652;-71
2021/08/25 06:58:28;;;;;;;37.67;27.98;;;;;;;;;;5001880;28;20199;-70
2021/08/25 07:00:55;;;;;;;35.65;25.58;;;;;;;;;;5004625;28;20227;-71
2021/08/25 07:03:20;;;;;;;34.40;24.90;;;;;;;;;;4993552;28;20243;-71
2021/08/25 07:05:46;;;;;;;32.38;24.65;;;;;;;;;;5003890;28;20263;-71
2021/08/25 07:08:11;;;;;;;35.00;24.48;;;;;;;;;;4994099;28;20757;-71
2021/08/25 07:10:37;;;;;;;34.80;24.60;;;;;;;;;;5004922;28;20205;-71
2021/08/25 07:13:02;;;;;;;32.88;24.42;;;;;;;;;;4995608;28;20248;-71
2021/08/25 07:15:28;;;;;;;35.35;24.23;;;;;;;;;;5000691;28;20224;-71
2021/08/25 07:17:53;;;;;;;33.08;23.10;;;;;;;;;;4997297;28;20650;-71
2021/08/25 07:20:19;;;;;;;29.70;23.27;;;;;;;;;;5001614;28;20596;-71
2021/08/25 07:22:44;;;;;;;28.75;21.30;;;;;;;;;;4996631;28;20274;-71
2021/08/25 07:25:11;;;;;;;31.00;21.02;;;;;;;;;;5005597;28;20213;-71
2021/08/25 07:27:38;;;;;;;26.33;19.65;;;;;;;;;;4997254;28;20228;-71
2021/08/25 07:30:05;;;;;;;26.38;19.25;;;;;;;;;;5008269;28;20187;-71
2021/08/25 07:32:30;;;;;;;27.23;20.05;;;;;;;;;;5004789;28;20190;-71
2021/08/25 07:34:55;;;;;;;27.67;18.45;;;;;;;;;;4999597;28;20205;-71
2021/08/25 07:37:21;;;;;;;26.70;18.92;;;;;;;;;;5006318;28;20187;-72
2021/08/25 07:39:46;;;;;;;24.67;17.70;;;;;;;;;;4999495;28;20269;-70
2021/08/25 07:42:11;;;;;;;21.52;17.73;;;;;;;;;;5007090;28;20206;-71
2021/08/25 07:44:37;;;;;;;23.83;16.65;;;;;;;;;;4999827;28;20193;-71
2021/08/25 07:47:02;;;;;;;25.15;16.65;;;;;;;;;;5008736;28;20182;-71
2021/08/25 07:49:29;;;;;;;22.52;15.32;;;;;;;;;;4999573;28;20564;-71
2021/08/25 07:51:55;;;;;;;23.00;15.07;;;;;;;;;;5006593;28;20175;-71
2021/08/25 07:54:20;;;;;;;21.30;13.70;;;;;;;;;;4999481;28;20269;-71
2021/08/25 07:56:45;;;;;;;17.45;12.27;;;;;;;;;;5008899;28;20186;-72
2021/08/25 07:59:11;;;;;;;19.75;12.90;;;;;;;;;;4999949;28;20300;-71
2021/08/25 08:01:36;;;;;;;21.45;13.18;;;;;;;;;;5003221;28;20194;-72
2021/08/25 08:04:02;;;;;;;18.15;12.93;;;;;;;;;;5009620;28;20189;-71
2021/08/25 08:06:27;;;;;;;18.30;13.35;;;;;;;;;;4997723;28;20194;-71
2021/08/25 08:08:52;;;;;;;16.08;12.68;;;;;;;;;;5007646;28;20277;-72
2021/08/25 08:11:18;;;;;;;18.38;12.13;;;;;;;;;;4998903;28;20482;-73
2021/08/25 08:13:44;;;;;;;17.27;12.50;;;;;;;;;;5005855;28;20241;-71
2021/08/25 08:16:10;;;;;;;18.67;12.35;;;;;;;;;;4996016;28;20654;-70
2021/08/25 08:18:42;;;;;;;19.30;12.73;;;;;;;;;;5004091;28;20189;-71
2021/08/25 08:21:07;;;;;;;17.00;13.60;;;;;;;;;;5007341;28;20188;-72
2021/08/25 08:23:34;;;;;;;16.35;12.38;;;;;;;;;;5007781;28;20229;-71
2021/08/25 08:25:59;;;;;;;18.10;13.00;;;;;;;;;;4998554;28;20277;-72
2021/08/25 08:28:25;;;;;;;15.20;11.23;;;;;;;;;;5007170;28;20314;-70
2021/08/25 08:30:50;;;;;;;15.40;11.00;;;;;;;;;;4998123;28;20178;-72
2021/08/25 08:33:15;;;;;;;15.30;11.05;;;;;;;;;;5008705;28;20261;-72
2021/08/25 08:35:41;;;;;;;16.58;11.30;;;;;;;;;;5007968;28;20183;-73
2021/08/25 08:38:07;;;;;;;17.98;11.00;;;;;;;;;;4999047;28;20190;-71
2021/08/25 08:40:34;;;;;;;13.25;10.05;;;;;;;;;;5008487;28;20182;-72
2021/08/25 08:43:08;;;;;;;16.13;9.75;;;;;;;;;;4999529;28;20210;-71
2021/08/25 08:45:39;;;;;;;14.02;9.00;;;;;;;;;;5007669;28;20282;-71
2021/08/25 08:48:06;;;;;;;14.00;9.43;;;;;;;;;;4996220;28;20191;-72
2021/08/25 08:50:31;;;;;;;15.10;10.50;;;;;;;;;;5005962;28;20189;-72
2021/08/25 08:52:58;;;;;;;13.02;11.02;;;;;;;;;;4994777;28;20642;-71
2021/08/25 08:55:23;;;;;;;14.02;10.98;;;;;;;;;;5006181;28;20272;-69
2021/08/25 08:57:48;;;;;;;15.60;11.15;;;;;;;;;;4999121;28;20585;-70
2021/08/25 09:00:14;;;;;;;17.85;13.18;;;;;;;;;;5007045;28;20230;-71
2021/08/25 09:02:46;;;;;;;16.55;12.77;;;;;;;;;;4996698;28;20666;-71
2021/08/25 09:05:26;;;;;;;18.40;13.65;;;;;;;;;;5007130;28;20241;-71
2021/08/25 09:07:58;;;;;;;16.58;13.07;;;;;;;;;;4997959;28;20190;-71
2021/08/25 09:10:29;;;;;;;15.00;12.02;;;;;;;;;;5005194;28;20550;-71
2021/08/25 09:13:00;;;;;;;16.83;13.40;;;;;;;;;;4995975;28;20210;-73
2021/08/25 09:15:29;;;;;;;14.50;12.20;;;;;;;;;;5006354;28;20471;-70
2021/08/25 09:18:02;;;;;;;18.35;13.32;;;;;;;;;;5003155;28;20183;-71
2021/08/25 09:20:29;;;;;;;17.88;13.73;;;;;;;;;;5006859;28;20186;-71
2021/08/25 09:23:18;;;;;;;17.80;13.27;;;;;;;;;;5005138;28;20269;-71
2021/08/25 09:25:46;;;;;;;17.85;13.02;;;;;;;;;;5004843;28;20186;-71
2021/08/25 09:28:14;;;;;;;16.27;13.70;;;;;;;;;;5006005;28;20178;-69
2021/08/25 09:30:54;;;;;;;16.38;13.90;;;;;;;;;;4997301;28;20282;-71
2021/08/25 09:33:22;;;;;;;16.65;13.02;;;;;;;;;;5006851;28;20181;-72
2021/08/25 09:35:48;;;;;;;14.60;11.80;;;;;;;;;;4997356;28;20285;-70
2021/08/25 09:38:21;;;;;;;15.48;12.65;;;;;;;;;;5003261;28;20186;-70
2021/08/25 09:40:49;;;;;;;15.30;12.40;;;;;;;;;;4997350;28;20569;-70
2021/08/25 09:43:37;;;;;;;15.18;12.02;;;;;;;;;;5005302;28;20301;-71
2021/08/25 09:46:22;;;;;;;19.42;13.30;;;;;;;;;;4995796;28;20198;-71
2021/08/25 09:48:55;;;;;;;16.90;13.50;;;;;;;;;;5008106;28;20494;-69
2021/08/25 09:51:24;;;;;;;21.48;16.55;;;;;;;;;;4995692;28;20282;-70
2021/08/25 09:53:51;;;;;;;21.38;16.65;;;;;;;;;;5006346;28;20257;-68
2021/08/25 09:56:25;;;;;;;20.15;15.60;;;;;;;;;;4995034;28;20186;-71
2021/08/25 09:58:51;;;;;;;20.88;16.15;;;;;;;;;;5004932;28;20269;-70
2021/08/25 10:01:17;;;;;;;19.52;14.45;;;;;;;;;;4995896;28;20210;-69
2021/08/25 10:03:43;;;;;;;18.70;13.75;;;;;;;;;;5007094;28;20214;-68
2021/08/25 10:06:08;;;;;;;17.38;13.13;;;;;;;;;;4995726;28;20249;-71
2021/08/25 10:08:35;;;;;;;14.10;12.07;;;;;;;;;;5006660;28;20194;-71
2021/08/25 10:11:02;;;;;;;16.17;12.90;;;;;;;;;;4994086;28;20218;-70
2021/08/25 10:13:28;;;;;;;16.40;11.57;;;;;;;;;;5006781;28;20183;-71
2021/08/25 10:15:54;;;;;;;17.65;13.15;;;;;;;;;;4998742;28;20214;-68
2021/08/25 10:18:37;;;;;;;17.25;12.85;;;;;;;;;;5002760;28;20626;-69
2021/08/25 10:21:02;;;;;;;16.63;12.80;;;;;;;;;;5001419;28;20572;-70
2021/08/25 10:23:57;;;;;;;17.58;12.77;;;;;;;;;;5000029;28;20203;-69
2021/08/25 10:26:23;;;;;;;15.93;12.85;;;;;;;;;;4997352;28;20557;-69
2021/08/25 10:29:11;;;;;;;16.02;12.57;;;;;;;;;;5007380;28;20183;-71
2021/08/25 10:31:49;;;;;;;13.57;9.48;;;;;;;;;;4999140;28;20253;-68
2021/08/25 10:34:23;;;;;;;16.48;12.02;;;;;;;;;;5002246;28;20206;-69
2021/08/25 10:36:50;;;;;;;12.23;9.48;;;;;;;;;;5006787;28;20183;-72
2021/08/25 10:39:36;;;;;;;10.10;8.13;;;;;;;;;;4996402;28;20278;-69
2021/08/25 10:42:03;;;;;;;10.30;8.00;;;;;;;;;;5006242;28;20661;-70
2021/08/25 10:44:49;;;;;;;11.13;7.85;;;;;;;;;;4993471;28;20581;-69
2021/08/25 10:47:16;;;;;;;11.55;8.80;;;;;;;;;;5005083;28;20194;-71
2021/08/25 10:49:47;;;;;;;10.82;7.75;;;;;;;;;;4996651;28;20598;-69
2021/08/25 10:52:16;;;;;;;8.32;6.72;;;;;;;;;;5007302;28;20183;-71
2021/08/25 10:54:46;;;;;;;8.48;6.53;;;;;;;;;;4994383;28;20202;-69
2021/08/25 10:57:14;;;;;;;10.63;7.35;;;;;;;;;;5003749;28;20187;-69
2021/08/25 10:59:40;;;;;;;9.30;7.05;;;;;;;;;;4997864;28;20233;-70
2021/08/25 11:02:06;;;;;;;9.98;6.93;;;;;;;;;;5010030;28;20645;-70
2021/08/25 11:04:32;;;;;;;11.60;7.78;;;;;;;;;;5000261;28;20199;-68
2021/08/25 11:07:02;;;;;;;9.10;6.45;;;;;;;;;;5012949;28;20244;-70
2021/08/25 11:09:30;;;;;;;7.78;6.85;;;;;;;;;;5002095;28;20194;-69
2021/08/25 11:12:19;;;;;;;12.05;6.88;;;;;;;;;;5006315;28;20183;-70
2021/08/25 11:14:48;;;;;;;9.52;7.15;;;;;;;;;;4997721;28;20510;-69
2021/08/25 11:17:24;;;;;;;9.70;5.63;;;;;;;;;;5006613;28;20194;-69
2021/08/25 11:19:52;;;;;;;10.68;5.93;;;;;;;;;;5000469;28;20186;-70
2021/08/25 11:22:26;;;;;;;9.73;6.55;;;;;;;;;;5006030;28;20269;-77
2021/08/25 11:25:03;;;;;;;7.05;5.32;;;;;;;;;;4999715;28;20561;-71
2021/08/25 11:27:36;;;;;;;6.22;3.67;;;;;;;;;;5005556;28;20542;-70
2021/08/25 11:30:15;;;;;;;6.47;2.90;;;;;;;;;;4997213;28;20193;-72
2021/08/25 11:32:47;;;;;;;7.55;3.50;;;;;;;;;;5007735;28;20741;-70
2021/08/25 11:35:20;;;;;;;6.05;3.63;;;;;;;;;;4999986;28;20226;-71
2021/08/25 11:37:46;;;;;;;8.07;4.25;;;;;;;;;;5002992;28;20571;-72
2021/08/25 11:40:12;;;;;;;5.47;3.55;;;;;;;;;;5002916;28;20181;-70
2021/08/25 11:42:37;;;;;;;6.15;3.33;;;;;;;;;;5005071;28;20249;-72
2021/08/25 11:45:28;;;;;;;4.80;3.00;;;;;;;;;;5009117;28;20187;-71
2021/08/25 11:47:55;;;;;;;4.97;3.00;;;;;;;;;;5004053;28;20332;-72
2021/08/25 11:50:23;;;;;;;4.28;2.78;;;;;;;;;;5008494;28;20221;-72
2021/08/25 11:52:50;;;;;;;6.57;2.88;;;;;;;;;;4996761;28;20197;-70
2021/08/25 11:55:16;;;;;;;3.90;2.40;;;;;;;;;;5008953;28;20187;-70
2021/08/25 11:57:43;;;;;;;5.15;2.83;;;;;;;;;;4999339;28;20256;-69
2021/08/25 12:00:10;;;;;;;3.80;2.70;;;;;;;;;;5006480;28;20320;-71
2021/08/25 12:02:59;;;;;;;4.05;3.05;;;;;;;;;;4998791;28;20297;-70
2021/08/25 12:05:27;;;;;;;5.00;2.70;;;;;;;;;;5004663;28;20642;-71
2021/08/25 12:08:10;;;;;;;8.48;2.95;;;;;;;;;;4998094;28;20191;-70
2021/08/25 12:10:40;;;;;;;5.72;3.13;;;;;;;;;;5006684;28;20183;-69
2021/08/25 12:13:10;;;;;;;4.63;2.75;;;;;;;;;;4998494;28;20273;-68
2021/08/25 12:15:48;;;;;;;6.03;2.60;;;;;;;;;;5006708;28;20267;-69
2021/08/25 12:18:16;;;;;;;5.38;2.70;;;;;;;;;;4998415;28;20186;-69
2021/08/25 12:20:44;;;;;;;4.05;2.47;;;;;;;;;;5006307;28;20229;-69
2021/08/25 12:23:11;;;;;;;6.88;2.97;;;;;;;;;;5001001;28;20211;-69
2021/08/25 12:25:41;;;;;;;3.42;2.40;;;;;;;;;;5003911;28;20222;-69
2021/08/25 12:28:06;;;;;;;7.32;2.60;;;;;;;;;;4998872;28;20187;-69
2021/08/25 12:30:36;;;;;;;6.15;2.78;;;;;;;;;;5004358;28;20254;-70
2021/08/25 12:33:05;;;;;;;3.90;2.22;;;;;;;;;;4997516;28;20624;-67
2021/08/25 12:35:31;;;;;;;6.43;2.92;;;;;;;;;;5000997;28;21258;-69
2021/08/25 12:37:57;;;;;;;5.60;2.33;;;;;;;;;;5004216;28;20186;-69
2021/08/25 12:40:23;;;;;;;4.78;2.17;;;;;;;;;;4998900;28;20186;-70
2021/08/25 12:42:50;;;;;;;6.68;2.53;;;;;;;;;;5005453;28;20290;-70
2021/08/25 12:45:16;;;;;;;7.50;2.10;;;;;;;;;;4986369;28;20237;-71
2021/08/25 12:47:42;;;;;;;5.25;2.15;;;;;;;;;;5008006;28;20206;-68
2021/08/25 12:50:08;;;;;;;4.22;2.20;;;;;;;;;;4995185;28;20195;-69
2021/08/25 12:52:33;;;;;;;3.10;2.08;;;;;;;;;;5006310;28;20622;-67
2021/08/25 12:54:58;;;;;;;4.32;1.67;;;;;;;;;;4997863;28;20198;-68
2021/08/25 12:57:23;;;;;;;3.72;1.70;;;;;;;;;;5004560;28;20187;-71
2021/08/25 12:59:49;;;;;;;2.67;1.75;;;;;;;;;;4997392;28;20239;-70
2021/08/25 13:02:17;;;;;;;4.40;1.63;;;;;;;;;;5003954;28;20205;-70
2021/08/25 13:04:43;;;;;;;4.63;1.55;;;;;;;;;;4992786;28;20190;-69
2021/08/25 13:07:10;;;;;;;1.70;1.17;;;;;;;;;;5007631;28;20181;-67
2021/08/25 13:09:36;;;;;;;4.57;1.40;;;;;;;;;;4995195;28;20204;-70
2021/08/25 13:12:02;;;;;;;3.03;1.40;;;;;;;;;;5004837;28;20460;-72
2021/08/25 13:14:27;;;;;;;2.70;1.33;;;;;;;;;;5001038;28;20278;-72
2021/08/25 13:16:53;;;;;;;2.80;1.23;;;;;;;;;;4996795;28;20281;-69
2021/08/25 13:19:19;;;;;;;2.95;1.33;;;;;;;;;;5001368;28;20197;-67
2021/08/25 13:21:46;;;;;;;1.67;1.27;;;;;;;;;;4999841;28;20183;-71
2021/08/25 13:24:11;;;;;;;1.92;1.40;;;;;;;;;;5003544;28;20584;-70
2021/08/25 13:26:37;;;;;;;3.15;1.45;;;;;;;;;;4999053;28;20260;-69
2021/08/25 13:29:02;;;;;;;1.48;0.90;;;;;;;;;;5002261;28;20208;-70
2021/08/25 13:31:28;;;;;;;2.90;0.90;;;;;;;;;;4993283;28;20187;-71
2021/08/25 13:33:53;;;;;;;2.67;0.88;;;;;;;;;;5005108;28;20629;-71
2021/08/25 13:36:18;;;;;;;1.70;0.73;;;;;;;;;;4994143;28;20206;-69
2021/08/25 13:38:44;;;;;;;2.08;0.90;;;;;;;;;;5003264;28;20190;-69
2021/08/25 13:41:09;;;;;;;1.70;0.80;;;;;;;;;;4999573;28;20195;-72
2021/08/25 13:43:34;;;;;;;0.88;0.60;;;;;;;;;;5000222;28;20230;-70
2021/08/25 13:46:00;;;;;;;1.23;0.93;;;;;;;;;;5001546;28;20285;-70
2021/08/25 13:48:25;;;;;;;1.60;0.80;;;;;;;;;;4992598;28;20547;-69
2021/08/25 13:50:51;;;;;;;1.60;1.00;;;;;;;;;;5004005;28;20552;-70
2021/08/25 13:53:16;;;;;;;3.03;0.80;;;;;;;;;;4301007;28;10000878;-69
2021/08/25 13:55:41;;;;;;;2.55;0.80;;;;;;;;;;5000878;28;20346;-72
2021/08/25 13:58:07;;;;;;;1.88;1.00;;;;;;;;;;4992772;28;20210;-69
2021/08/25 14:00:32;;;;;;;0.70;0.70;;;;;;;;;;5001471;28;20222;-69
2021/08/25 14:02:57;;;;;;;1.33;0.80;;;;;;;;;;4994513;28;20211;-69
2021/08/25 14:05:23;;;;;;;2.13;0.68;;;;;;;;;;5001936;28;20403;-74
2021/08/25 14:07:48;;;;;;;0.65;0.57;;;;;;;;;;4991719;28;20197;-73
2021/08/25 14:10:13;;;;;;;1.05;0.50;;;;;;;;;;5000690;28;20704;-71
2021/08/25 14:12:40;;;;;;;2.38;0.50;;;;;;;;;;4997565;28;20186;-70
2021/08/25 14:15:06;;;;;;;2.10;0.65;;;;;;;;;;4993217;28;20548;-71
2021/08/25 14:17:31;;;;;;;0.50;0.50;;;;;;;;;;5001464;28;20190;-69
2021/08/25 14:19:56;;;;;;;1.55;0.70;;;;;;;;;;4992052;28;21841;-70
2021/08/25 14:22:22;;;;;;;0.60;0.38;;;;;;;;;;4996737;28;20202;-68
2021/08/25 14:24:47;;;;;;;2.28;0.30;;;;;;;;;;4991642;28;20575;-70
2021/08/25 14:27:12;;;;;;;2.35;0.50;;;;;;;;;;4997443;28;20191;-69
2021/08/25 14:29:38;;;;;;;1.55;0.50;;;;;;;;;;4992189;28;20745;-68